sensor_id;sensor_type;location;lat;lon;timestamp;temperature;humidity
71082;SHT31;58740;50.672;18.690;2023-04-28T00:02:22;6.93;62.83
71082;SHT31;58740;50.672;18.690;2023-04-28T00:04:51;6.92;62.88
71082;SHT31;58740;50.672;18.690;2023-04-28T00:07:19;6.89;63.42
71082;SHT31;58740;50.672;18.690;2023-04-28T00:09:46;6.89;63.69
71082;SHT31;58740;50.672;18.690;2023-04-28T00:12:14;6.89;63.25
71082;SHT31;58740;50.672;18.690;2023-04-28T00:14:42;6.87;62.83
71082;SHT31;58740;50.672;18.690;2023-04-28T00:17:09;6.83;62.55
71082;SHT31;58740;50.672;18.690;2023-04-28T00:19:37;6.82;62.68
71082;SHT31;58740;50.672;18.690;2023-04-28T00:22:05;6.81;62.97
71082;SHT31;58740;50.672;18.690;2023-04-28T00:24:32;6.79;62.89
71082;SHT31;58740;50.672;18.690;2023-04-28T00:27:02;6.76;62.93
71082;SHT31;58740;50.672;18.690;2023-04-28T00:29:30;6.74;63.29
71082;SHT31;58740;50.672;18.690;2023-04-28T00:31:57;6.74;63.45
71082;SHT31;58740;50.672;18.690;2023-04-28T00:34:25;6.77;63.04
71082;SHT31;58740;50.672;18.690;2023-04-28T00:36:53;6.75;63.10
71082;SHT31;58740;50.672;18.690;2023-04-28T00:39:21;6.76;63.04
71082;SHT31;58740;50.672;18.690;2023-04-28T00:41:49;6.77;63.00
71082;SHT31;58740;50.672;18.690;2023-04-28T00:44:17;6.78;63.18
71082;SHT31;58740;50.672;18.690;2023-04-28T00:46:45;6.75;63.64
71082;SHT31;58740;50.672;18.690;2023-04-28T00:49:14;6.72;64.34
71082;SHT31;58740;50.672;18.690;2023-04-28T00:51:43;6.73;63.96
71082;SHT31;58740;50.672;18.690;2023-04-28T00:54:12;6.77;63.84
71082;SHT31;58740;50.672;18.690;2023-04-28T00:56:44;6.78;64.00
71082;SHT31;58740;50.672;18.690;2023-04-28T00:59:12;6.80;64.18
71082;SHT31;58740;50.672;18.690;2023-04-28T01:01:39;6.77;64.26
71082;SHT31;58740;50.672;18.690;2023-04-28T01:04:07;6.74;64.37
71082;SHT31;58740;50.672;18.690;2023-04-28T01:06:35;6.74;64.39
71082;SHT31;58740;50.672;18.690;2023-04-28T01:09:04;6.73;64.38
71082;SHT31;58740;50.672;18.690;2023-04-28T01:11:33;6.71;64.64
71082;SHT31;58740;50.672;18.690;2023-04-28T01:14:01;6.68;64.63
71082;SHT31;58740;50.672;18.690;2023-04-28T01:16:29;6.69;64.75
71082;SHT31;58740;50.672;18.690;2023-04-28T01:18:59;6.70;64.96
71082;SHT31;58740;50.672;18.690;2023-04-28T01:21:29;6.71;65.24
71082;SHT31;58740;50.672;18.690;2023-04-28T01:23:59;6.69;65.52
71082;SHT31;58740;50.672;18.690;2023-04-28T01:26:27;6.67;65.80
71082;SHT31;58740;50.672;18.690;2023-04-28T01:28:55;6.65;66.10
71082;SHT31;58740;50.672;18.690;2023-04-28T01:31:23;6.66;65.89
71082;SHT31;58740;50.672;18.690;2023-04-28T01:33:51;6.67;65.78
71082;SHT31;58740;50.672;18.690;2023-04-28T01:36:19;6.68;65.99
71082;SHT31;58740;50.672;18.690;2023-04-28T01:38:49;6.68;66.14
71082;SHT31;58740;50.672;18.690;2023-04-28T01:41:17;6.66;66.29
71082;SHT31;58740;50.672;18.690;2023-04-28T01:43:45;6.63;66.68
71082;SHT31;58740;50.672;18.690;2023-04-28T01:46:13;6.58;67.07
71082;SHT31;58740;50.672;18.690;2023-04-28T01:48:41;6.55;67.27
71082;SHT31;58740;50.672;18.690;2023-04-28T01:51:08;6.51;67.37
71082;SHT31;58740;50.672;18.690;2023-04-28T01:53:36;6.54;66.91
71082;SHT31;58740;50.672;18.690;2023-04-28T01:56:03;6.57;65.97
71082;SHT31;58740;50.672;18.690;2023-04-28T01:58:31;6.56;65.41
71082;SHT31;58740;50.672;18.690;2023-04-28T02:00:59;6.54;65.49
71082;SHT31;58740;50.672;18.690;2023-04-28T02:03:27;6.54;65.48
71082;SHT31;58740;50.672;18.690;2023-04-28T02:05:55;6.54;65.56
71082;SHT31;58740;50.672;18.690;2023-04-28T02:08:22;6.53;65.46
71082;SHT31;58740;50.672;18.690;2023-04-28T02:10:50;6.49;65.11
71082;SHT31;58740;50.672;18.690;2023-04-28T02:13:18;6.41;64.88
71082;SHT31;58740;50.672;18.690;2023-04-28T02:15:46;6.36;65.08
71082;SHT31;58740;50.672;18.690;2023-04-28T02:18:13;6.33;65.42
71082;SHT31;58740;50.672;18.690;2023-04-28T02:20:41;6.29;65.66
71082;SHT31;58740;50.672;18.690;2023-04-28T02:23:09;6.23;65.74
71082;SHT31;58740;50.672;18.690;2023-04-28T02:25:37;6.17;65.77
71082;SHT31;58740;50.672;18.690;2023-04-28T02:28:05;6.16;65.72
71082;SHT31;58740;50.672;18.690;2023-04-28T02:30:32;6.11;65.76
71082;SHT31;58740;50.672;18.690;2023-04-28T02:33:00;6.04;65.88
71082;SHT31;58740;50.672;18.690;2023-04-28T02:35:28;5.97;66.00
71082;SHT31;58740;50.672;18.690;2023-04-28T02:37:55;5.92;66.02
71082;SHT31;58740;50.672;18.690;2023-04-28T02:40:23;5.85;66.12
71082;SHT31;58740;50.672;18.690;2023-04-28T02:42:51;5.82;66.17
71082;SHT31;58740;50.672;18.690;2023-04-28T02:45:18;5.80;66.14
71082;SHT31;58740;50.672;18.690;2023-04-28T02:47:46;5.78;66.15
71082;SHT31;58740;50.672;18.690;2023-04-28T02:50:14;5.75;66.30
71082;SHT31;58740;50.672;18.690;2023-04-28T02:52:42;5.69;66.39
71082;SHT31;58740;50.672;18.690;2023-04-28T02:55:09;5.63;66.38
71082;SHT31;58740;50.672;18.690;2023-04-28T02:57:37;5.57;66.54
71082;SHT31;58740;50.672;18.690;2023-04-28T03:00:05;5.53;66.78
71082;SHT31;58740;50.672;18.690;2023-04-28T03:02:34;5.48;66.98
71082;SHT31;58740;50.672;18.690;2023-04-28T03:05:03;5.45;66.97
71082;SHT31;58740;50.672;18.690;2023-04-28T03:07:31;5.45;67.02
71082;SHT31;58740;50.672;18.690;2023-04-28T03:09:58;5.43;67.05
71082;SHT31;58740;50.672;18.690;2023-04-28T03:12:27;5.39;67.08
71082;SHT31;58740;50.672;18.690;2023-04-28T03:14:54;5.39;67.21
71082;SHT31;58740;50.672;18.690;2023-04-28T03:17:22;5.39;67.20
71082;SHT31;58740;50.672;18.690;2023-04-28T03:19:50;5.34;67.10
71082;SHT31;58740;50.672;18.690;2023-04-28T03:22:18;5.30;67.31
71082;SHT31;58740;50.672;18.690;2023-04-28T03:24:46;5.28;67.39
71082;SHT31;58740;50.672;18.690;2023-04-28T03:27:13;5.28;67.41
71082;SHT31;58740;50.672;18.690;2023-04-28T03:29:41;5.27;67.31
71082;SHT31;58740;50.672;18.690;2023-04-28T03:32:09;5.21;67.37
71082;SHT31;58740;50.672;18.690;2023-04-28T03:34:37;5.18;67.49
71082;SHT31;58740;50.672;18.690;2023-04-28T03:37:05;5.15;67.61
71082;SHT31;58740;50.672;18.690;2023-04-28T03:39:33;5.11;67.73
71082;SHT31;58740;50.672;18.690;2023-04-28T03:42:01;5.09;67.88
71082;SHT31;58740;50.672;18.690;2023-04-28T03:44:29;5.06;67.93
71082;SHT31;58740;50.672;18.690;2023-04-28T03:46:56;5.03;68.08
71082;SHT31;58740;50.672;18.690;2023-04-28T03:49:24;5.00;68.35
71082;SHT31;58740;50.672;18.690;2023-04-28T03:51:52;4.99;68.55
71082;SHT31;58740;50.672;18.690;2023-04-28T03:54:19;4.98;68.53
71082;SHT31;58740;50.672;18.690;2023-04-28T03:56:47;5.00;68.52
71082;SHT31;58740;50.672;18.690;2023-04-28T03:59:15;4.99;68.47
71082;SHT31;58740;50.672;18.690;2023-04-28T04:01:42;5.00;68.57
71082;SHT31;58740;50.672;18.690;2023-04-28T04:04:10;4.99;68.64
71082;SHT31;58740;50.672;18.690;2023-04-28T04:06:38;4.98;68.86
71082;SHT31;58740;50.672;18.690;2023-04-28T04:09:06;5.00;68.91
71082;SHT31;58740;50.672;18.690;2023-04-28T04:11:34;5.02;69.08
71082;SHT31;58740;50.672;18.690;2023-04-28T04:14:02;5.05;68.92
71082;SHT31;58740;50.672;18.690;2023-04-28T04:16:29;5.09;68.93
71082;SHT31;58740;50.672;18.690;2023-04-28T04:18:57;5.18;68.31
71082;SHT31;58740;50.672;18.690;2023-04-28T04:21:25;5.27;68.11
71082;SHT31;58740;50.672;18.690;2023-04-28T04:23:54;5.33;67.50
71082;SHT31;58740;50.672;18.690;2023-04-28T04:26:21;5.39;67.92
71082;SHT31;58740;50.672;18.690;2023-04-28T04:28:49;5.40;68.11
71082;SHT31;58740;50.672;18.690;2023-04-28T04:31:17;5.45;67.58
71082;SHT31;58740;50.672;18.690;2023-04-28T04:33:49;5.52;66.98
71082;SHT31;58740;50.672;18.690;2023-04-28T04:36:17;5.57;66.51
71082;SHT31;58740;50.672;18.690;2023-04-28T04:38:44;5.63;66.49
71082;SHT31;58740;50.672;18.690;2023-04-28T04:41:12;5.68;65.72
71082;SHT31;58740;50.672;18.690;2023-04-28T04:43:40;5.70;65.20
71082;SHT31;58740;50.672;18.690;2023-04-28T04:46:08;5.71;65.02
71082;SHT31;58740;50.672;18.690;2023-04-28T04:48:35;5.71;64.89
71082;SHT31;58740;50.672;18.690;2023-04-28T04:51:03;5.75;64.72
71082;SHT31;58740;50.672;18.690;2023-04-28T04:53:31;5.78;64.79
71082;SHT31;58740;50.672;18.690;2023-04-28T04:55:59;5.86;64.88
71082;SHT31;58740;50.672;18.690;2023-04-28T04:58:27;5.93;64.53
71082;SHT31;58740;50.672;18.690;2023-04-28T05:00:55;6.00;64.37
71082;SHT31;58740;50.672;18.690;2023-04-28T05:03:22;6.06;64.35
71082;SHT31;58740;50.672;18.690;2023-04-28T05:05:50;6.14;64.25
71082;SHT31;58740;50.672;18.690;2023-04-28T05:08:18;6.25;64.20
71082;SHT31;58740;50.672;18.690;2023-04-28T05:10:46;6.36;64.06
71082;SHT31;58740;50.672;18.690;2023-04-28T05:13:14;6.47;64.11
71082;SHT31;58740;50.672;18.690;2023-04-28T05:15:42;6.58;63.82
71082;SHT31;58740;50.672;18.690;2023-04-28T05:18:09;6.68;63.35
71082;SHT31;58740;50.672;18.690;2023-04-28T05:20:40;6.74;63.30
71082;SHT31;58740;50.672;18.690;2023-04-28T05:23:07;6.83;63.42
71082;SHT31;58740;50.672;18.690;2023-04-28T05:25:35;6.93;63.42
71082;SHT31;58740;50.672;18.690;2023-04-28T05:28:03;7.06;63.14
71082;SHT31;58740;50.672;18.690;2023-04-28T05:30:34;7.22;62.86
71082;SHT31;58740;50.672;18.690;2023-04-28T05:33:02;7.30;61.34
71082;SHT31;58740;50.672;18.690;2023-04-28T05:35:30;7.36;60.67
71082;SHT31;58740;50.672;18.690;2023-04-28T05:37:58;7.39;60.17
71082;SHT31;58740;50.672;18.690;2023-04-28T05:40:26;7.47;60.63
71082;SHT31;58740;50.672;18.690;2023-04-28T05:42:54;7.58;60.43
71082;SHT31;58740;50.672;18.690;2023-04-28T05:45:22;7.67;60.05
71082;SHT31;58740;50.672;18.690;2023-04-28T05:47:50;7.76;59.52
71082;SHT31;58740;50.672;18.690;2023-04-28T05:50:18;7.81;58.68
71082;SHT31;58740;50.672;18.690;2023-04-28T05:52:45;7.84;58.42
71082;SHT31;58740;50.672;18.690;2023-04-28T05:55:13;7.92;58.47
71082;SHT31;58740;50.672;18.690;2023-04-28T05:57:41;7.98;57.93
71082;SHT31;58740;50.672;18.690;2023-04-28T06:00:19;8.08;57.86
71082;SHT31;58740;50.672;18.690;2023-04-28T06:02:48;8.15;56.22
71082;SHT31;58740;50.672;18.690;2023-04-28T06:05:16;8.22;56.47
71082;SHT31;58740;50.672;18.690;2023-04-28T06:07:44;8.34;56.80
71082;SHT31;58740;50.672;18.690;2023-04-28T06:10:16;8.43;56.14
71082;SHT31;58740;50.672;18.690;2023-04-28T06:12:45;8.48;55.88
71082;SHT31;58740;50.672;18.690;2023-04-28T06:15:13;8.53;55.54
71082;SHT31;58740;50.672;18.690;2023-04-28T06:17:40;8.56;55.29
71082;SHT31;58740;50.672;18.690;2023-04-28T06:20:09;8.55;54.89
71082;SHT31;58740;50.672;18.690;2023-04-28T06:22:39;8.60;55.08
71082;SHT31;58740;50.672;18.690;2023-04-28T06:25:07;8.66;54.00
71082;SHT31;58740;50.672;18.690;2023-04-28T06:27:35;8.69;54.06
71082;SHT31;58740;50.672;18.690;2023-04-28T06:30:03;8.76;53.52
71082;SHT31;58740;50.672;18.690;2023-04-28T06:32:32;8.80;52.89
71082;SHT31;58740;50.672;18.690;2023-04-28T06:35:00;8.83;53.19
71082;SHT31;58740;50.672;18.690;2023-04-28T06:37:28;8.89;53.17
71082;SHT31;58740;50.672;18.690;2023-04-28T06:39:55;8.97;53.16
71082;SHT31;58740;50.672;18.690;2023-04-28T06:42:23;9.04;53.07
71082;SHT31;58740;50.672;18.690;2023-04-28T06:44:53;9.14;53.41
71082;SHT31;58740;50.672;18.690;2023-04-28T06:47:20;9.24;53.41
71082;SHT31;58740;50.672;18.690;2023-04-28T06:49:48;9.34;52.97
71082;SHT31;58740;50.672;18.690;2023-04-28T06:52:16;9.45;52.06
71082;SHT31;58740;50.672;18.690;2023-04-28T06:54:46;9.53;52.01
71082;SHT31;58740;50.672;18.690;2023-04-28T06:57:16;9.61;52.25
71082;SHT31;58740;50.672;18.690;2023-04-28T06:59:43;9.65;51.48
71082;SHT31;58740;50.672;18.690;2023-04-28T07:02:12;9.65;51.31
71082;SHT31;58740;50.672;18.690;2023-04-28T07:04:40;9.67;51.81
71082;SHT31;58740;50.672;18.690;2023-04-28T07:07:08;9.70;52.02
71082;SHT31;58740;50.672;18.690;2023-04-28T07:09:36;9.76;51.37
71082;SHT31;58740;50.672;18.690;2023-04-28T07:12:04;9.81;50.74
71082;SHT31;58740;50.672;18.690;2023-04-28T07:14:32;9.82;51.00
71082;SHT31;58740;50.672;18.690;2023-04-28T07:16:59;9.82;51.08
71082;SHT31;58740;50.672;18.690;2023-04-28T07:19:27;9.86;50.00
71082;SHT31;58740;50.672;18.690;2023-04-28T07:21:55;9.98;49.63
71082;SHT31;58740;50.672;18.690;2023-04-28T07:24:23;10.11;50.60
71082;SHT31;58740;50.672;18.690;2023-04-28T07:26:51;10.26;51.67
71082;SHT31;58740;50.672;18.690;2023-04-28T07:29:19;10.45;51.46
71082;SHT31;58740;50.672;18.690;2023-04-28T07:31:47;10.60;49.99
71082;SHT31;58740;50.672;18.690;2023-04-28T07:34:15;10.71;48.38
71082;SHT31;58740;50.672;18.690;2023-04-28T07:36:43;10.82;48.49
71082;SHT31;58740;50.672;18.690;2023-04-28T07:39:10;10.91;49.01
71082;SHT31;58740;50.672;18.690;2023-04-28T07:41:38;11.05;48.26
71082;SHT31;58740;50.672;18.690;2023-04-28T07:44:07;11.17;47.08
71082;SHT31;58740;50.672;18.690;2023-04-28T07:46:35;11.25;46.81
71082;SHT31;58740;50.672;18.690;2023-04-28T07:49:04;11.32;47.63
71082;SHT31;58740;50.672;18.690;2023-04-28T07:51:32;11.36;46.58
71082;SHT31;58740;50.672;18.690;2023-04-28T07:54:00;11.39;45.96
71082;SHT31;58740;50.672;18.690;2023-04-28T07:56:27;11.50;46.92
71082;SHT31;58740;50.672;18.690;2023-04-28T07:58:55;11.63;46.33
71082;SHT31;58740;50.672;18.690;2023-04-28T08:01:23;11.71;44.27
71082;SHT31;58740;50.672;18.690;2023-04-28T08:03:51;11.73;44.57
71082;SHT31;58740;50.672;18.690;2023-04-28T08:06:19;11.79;45.37
71082;SHT31;58740;50.672;18.690;2023-04-28T08:08:47;11.90;45.25
71082;SHT31;58740;50.672;18.690;2023-04-28T08:11:15;12.01;44.46
71082;SHT31;58740;50.672;18.690;2023-04-28T08:13:43;12.15;44.56
71082;SHT31;58740;50.672;18.690;2023-04-28T08:16:10;12.26;42.84
71082;SHT31;58740;50.672;18.690;2023-04-28T08:18:38;12.33;44.73
71082;SHT31;58740;50.672;18.690;2023-04-28T08:21:06;12.44;45.42
71082;SHT31;58740;50.672;18.690;2023-04-28T08:23:34;12.53;42.89
71082;SHT31;58740;50.672;18.690;2023-04-28T08:26:01;12.61;42.13
71082;SHT31;58740;50.672;18.690;2023-04-28T08:28:31;12.69;41.72
71082;SHT31;58740;50.672;18.690;2023-04-28T08:31:00;12.73;41.76
71082;SHT31;58740;50.672;18.690;2023-04-28T08:33:28;12.82;41.91
71082;SHT31;58740;50.672;18.690;2023-04-28T08:35:55;12.92;41.25
71082;SHT31;58740;50.672;18.690;2023-04-28T08:38:24;12.93;39.06
71082;SHT31;58740;50.672;18.690;2023-04-28T08:40:52;12.91;38.96
71082;SHT31;58740;50.672;18.690;2023-04-28T08:43:20;12.96;38.17
71082;SHT31;58740;50.672;18.690;2023-04-28T08:45:48;13.02;39.04
71082;SHT31;58740;50.672;18.690;2023-04-28T08:48:17;13.03;38.62
71082;SHT31;58740;50.672;18.690;2023-04-28T08:50:48;13.03;39.35
71082;SHT31;58740;50.672;18.690;2023-04-28T08:53:23;13.03;38.75
71082;SHT31;58740;50.672;18.690;2023-04-28T08:55:54;13.05;37.59
71082;SHT31;58740;50.672;18.690;2023-04-28T08:58:24;13.10;38.40
71082;SHT31;58740;50.672;18.690;2023-04-28T09:00:53;13.16;39.75
71082;SHT31;58740;50.672;18.690;2023-04-28T09:03:21;13.20;39.10
71082;SHT31;58740;50.672;18.690;2023-04-28T09:05:49;13.22;37.34
71082;SHT31;58740;50.672;18.690;2023-04-28T09:08:17;13.19;37.25
71082;SHT31;58740;50.672;18.690;2023-04-28T09:10:45;13.22;38.83
71082;SHT31;58740;50.672;18.690;2023-04-28T09:13:23;13.28;40.77
71082;SHT31;58740;50.672;18.690;2023-04-28T09:15:58;13.32;40.99
71082;SHT31;58740;50.672;18.690;2023-04-28T09:18:28;13.37;40.41
71082;SHT31;58740;50.672;18.690;2023-04-28T09:21:06;13.43;38.69
71082;SHT31;58740;50.672;18.690;2023-04-28T09:23:46;13.48;39.72
71082;SHT31;58740;50.672;18.690;2023-04-28T09:26:15;13.51;39.06
71082;SHT31;58740;50.672;18.690;2023-04-28T09:28:43;13.56;39.28
71082;SHT31;58740;50.672;18.690;2023-04-28T09:31:20;13.62;40.97
71082;SHT31;58740;50.672;18.690;2023-04-28T09:33:57;13.70;40.92
71082;SHT31;58740;50.672;18.690;2023-04-28T09:36:26;13.74;38.76
71082;SHT31;58740;50.672;18.690;2023-04-28T09:38:59;13.76;38.96
71082;SHT31;58740;50.672;18.690;2023-04-28T09:41:41;13.80;39.06
71082;SHT31;58740;50.672;18.690;2023-04-28T09:44:15;13.87;38.21
71082;SHT31;58740;50.672;18.690;2023-04-28T09:46:46;13.91;38.23
71082;SHT31;58740;50.672;18.690;2023-04-28T09:49:14;13.96;39.27
71082;SHT31;58740;50.672;18.690;2023-04-28T09:51:42;13.93;38.52
71082;SHT31;58740;50.672;18.690;2023-04-28T09:54:10;13.85;38.61
71082;SHT31;58740;50.672;18.690;2023-04-28T09:56:39;13.79;39.08
71082;SHT31;58740;50.672;18.690;2023-04-28T09:59:10;13.76;39.03
71082;SHT31;58740;50.672;18.690;2023-04-28T10:01:39;13.73;38.56
71082;SHT31;58740;50.672;18.690;2023-04-28T10:04:09;13.71;39.31
71082;SHT31;58740;50.672;18.690;2023-04-28T10:06:39;13.79;39.71
71082;SHT31;58740;50.672;18.690;2023-04-28T10:09:08;13.95;39.62
71082;SHT31;58740;50.672;18.690;2023-04-28T10:11:36;14.07;38.66
71082;SHT31;58740;50.672;18.690;2023-04-28T10:14:06;14.10;37.84
71082;SHT31;58740;50.672;18.690;2023-04-28T10:16:34;14.17;40.46
71082;SHT31;58740;50.672;18.690;2023-04-28T10:19:02;14.25;40.13
71082;SHT31;58740;50.672;18.690;2023-04-28T10:21:31;14.35;40.78
71082;SHT31;58740;50.672;18.690;2023-04-28T10:24:17;14.35;41.40
71082;SHT31;58740;50.672;18.690;2023-04-28T10:27:06;14.29;40.85
71082;SHT31;58740;50.672;18.690;2023-04-28T10:29:35;14.25;41.11
71082;SHT31;58740;50.672;18.690;2023-04-28T10:32:14;14.20;42.04
71082;SHT31;58740;50.672;18.690;2023-04-28T10:34:44;14.18;41.47
71082;SHT31;58740;50.672;18.690;2023-04-28T10:37:12;14.17;41.47
71082;SHT31;58740;50.672;18.690;2023-04-28T10:40:03;14.14;41.89
71082;SHT31;58740;50.672;18.690;2023-04-28T10:43:03;14.13;40.38
71082;SHT31;58740;50.672;18.690;2023-04-28T10:56:15;14.33;37.56
71082;SHT31;58740;50.672;18.690;2023-04-28T10:58:46;14.32;37.63
71082;SHT31;58740;50.672;18.690;2023-04-28T11:03:49;14.48;36.59
71082;SHT31;58740;50.672;18.690;2023-04-28T11:17:04;14.76;36.03
71082;SHT31;58740;50.672;18.690;2023-04-28T11:19:40;14.74;36.92
71082;SHT31;58740;50.672;18.690;2023-04-28T11:22:18;14.79;38.65
71082;SHT31;58740;50.672;18.690;2023-04-28T11:24:56;14.84;37.86
71082;SHT31;58740;50.672;18.690;2023-04-28T11:27:27;14.85;37.67
71082;SHT31;58740;50.672;18.690;2023-04-28T11:29:58;14.84;36.99
71082;SHT31;58740;50.672;18.690;2023-04-28T11:34:57;14.73;36.99
71082;SHT31;58740;50.672;18.690;2023-04-28T11:37:25;14.80;37.48
71082;SHT31;58740;50.672;18.690;2023-04-28T11:39:53;14.90;36.99
71082;SHT31;58740;50.672;18.690;2023-04-28T11:42:21;15.07;37.52
71082;SHT31;58740;50.672;18.690;2023-04-28T11:44:52;15.20;37.20
71082;SHT31;58740;50.672;18.690;2023-04-28T11:47:33;15.26;37.19
71082;SHT31;58740;50.672;18.690;2023-04-28T11:50:02;15.26;36.31
71082;SHT31;58740;50.672;18.690;2023-04-28T11:52:30;15.15;35.94
71082;SHT31;58740;50.672;18.690;2023-04-28T11:54:58;15.09;36.20
71082;SHT31;58740;50.672;18.690;2023-04-28T11:57:28;15.07;37.20
71082;SHT31;58740;50.672;18.690;2023-04-28T12:00:12;15.07;36.96
71082;SHT31;58740;50.672;18.690;2023-04-28T12:02:45;15.12;35.73
71082;SHT31;58740;50.672;18.690;2023-04-28T12:05:14;15.19;36.16
71082;SHT31;58740;50.672;18.690;2023-04-28T12:07:42;15.23;37.61
71082;SHT31;58740;50.672;18.690;2023-04-28T12:10:12;15.22;36.04
71082;SHT31;58740;50.672;18.690;2023-04-28T12:12:45;15.22;35.40
71082;SHT31;58740;50.672;18.690;2023-04-28T12:15:19;15.17;34.77
71082;SHT31;58740;50.672;18.690;2023-04-28T12:17:49;15.09;35.59
71082;SHT31;58740;50.672;18.690;2023-04-28T12:20:34;15.10;35.96
71082;SHT31;58740;50.672;18.690;2023-04-28T12:23:06;15.16;36.05
71082;SHT31;58740;50.672;18.690;2023-04-28T12:25:44;15.21;35.30
71082;SHT31;58740;50.672;18.690;2023-04-28T12:28:14;15.26;36.67
71082;SHT31;58740;50.672;18.690;2023-04-28T12:30:42;15.28;36.22
71082;SHT31;58740;50.672;18.690;2023-04-28T12:35:56;15.29;35.33
71082;SHT31;58740;50.672;18.690;2023-04-28T12:38:25;15.25;34.56
71082;SHT31;58740;50.672;18.690;2023-04-28T12:40:54;15.22;34.19
71082;SHT31;58740;50.672;18.690;2023-04-28T12:43:23;15.20;34.38
71082;SHT31;58740;50.672;18.690;2023-04-28T12:45:53;15.25;35.03
71082;SHT31;58740;50.672;18.690;2023-04-28T12:48:22;15.33;36.43
71082;SHT31;58740;50.672;18.690;2023-04-28T12:50:51;15.43;35.11
71082;SHT31;58740;50.672;18.690;2023-04-28T12:53:19;15.49;34.64
71082;SHT31;58740;50.672;18.690;2023-04-28T12:55:47;15.48;33.59
71082;SHT31;58740;50.672;18.690;2023-04-28T12:58:14;15.49;34.07
71082;SHT31;58740;50.672;18.690;2023-04-28T13:00:42;15.52;34.31
71082;SHT31;58740;50.672;18.690;2023-04-28T13:03:10;15.57;35.74
71082;SHT31;58740;50.672;18.690;2023-04-28T13:05:38;15.59;36.06
71082;SHT31;58740;50.672;18.690;2023-04-28T13:08:06;15.57;36.82
71082;SHT31;58740;50.672;18.690;2023-04-28T13:10:33;15.54;36.87
71082;SHT31;58740;50.672;18.690;2023-04-28T13:13:01;15.50;35.28
71082;SHT31;58740;50.672;18.690;2023-04-28T13:15:29;15.46;35.01
71082;SHT31;58740;50.672;18.690;2023-04-28T13:17:57;15.44;34.96
71082;SHT31;58740;50.672;18.690;2023-04-28T13:20:26;15.40;34.90
71082;SHT31;58740;50.672;18.690;2023-04-28T13:22:54;15.43;35.75
71082;SHT31;58740;50.672;18.690;2023-04-28T13:25:21;15.51;36.49
71082;SHT31;58740;50.672;18.690;2023-04-28T13:27:49;15.57;37.58
71082;SHT31;58740;50.672;18.690;2023-04-28T13:30:18;15.59;37.19
71082;SHT31;58740;50.672;18.690;2023-04-28T13:32:46;15.57;36.96
71082;SHT31;58740;50.672;18.690;2023-04-28T13:35:13;15.57;36.08
71082;SHT31;58740;50.672;18.690;2023-04-28T13:37:41;15.57;35.69
71082;SHT31;58740;50.672;18.690;2023-04-28T13:40:12;15.60;34.99
71082;SHT31;58740;50.672;18.690;2023-04-28T13:42:40;15.64;34.03
71082;SHT31;58740;50.672;18.690;2023-04-28T13:45:08;15.66;34.50
71082;SHT31;58740;50.672;18.690;2023-04-28T13:47:36;15.66;35.87
71082;SHT31;58740;50.672;18.690;2023-04-28T13:50:04;15.66;35.79
71082;SHT31;58740;50.672;18.690;2023-04-28T13:52:32;15.70;36.21
71082;SHT31;58740;50.672;18.690;2023-04-28T13:55:00;15.72;37.71
71082;SHT31;58740;50.672;18.690;2023-04-28T13:57:27;15.74;37.29
71082;SHT31;58740;50.672;18.690;2023-04-28T13:59:55;15.72;36.91
71082;SHT31;58740;50.672;18.690;2023-04-28T14:02:23;15.72;37.70
71082;SHT31;58740;50.672;18.690;2023-04-28T14:04:51;15.72;37.39
71082;SHT31;58740;50.672;18.690;2023-04-28T14:07:20;15.73;37.27
71082;SHT31;58740;50.672;18.690;2023-04-28T14:09:48;15.73;36.88
71082;SHT31;58740;50.672;18.690;2023-04-28T14:12:16;15.72;36.74
71082;SHT31;58740;50.672;18.690;2023-04-28T14:14:45;15.72;35.95
71082;SHT31;58740;50.672;18.690;2023-04-28T14:17:15;15.72;35.51
71082;SHT31;58740;50.672;18.690;2023-04-28T14:19:43;15.70;36.40
71082;SHT31;58740;50.672;18.690;2023-04-28T14:22:12;15.69;36.18
71082;SHT31;58740;50.672;18.690;2023-04-28T14:24:40;15.72;36.03
71082;SHT31;58740;50.672;18.690;2023-04-28T14:27:09;15.72;36.02
71082;SHT31;58740;50.672;18.690;2023-04-28T14:29:37;15.70;36.60
71082;SHT31;58740;50.672;18.690;2023-04-28T14:32:06;15.66;36.80
71082;SHT31;58740;50.672;18.690;2023-04-28T14:34:33;15.63;35.29
71082;SHT31;58740;50.672;18.690;2023-04-28T14:37:01;15.64;34.94
71082;SHT31;58740;50.672;18.690;2023-04-28T14:39:29;15.64;35.04
71082;SHT31;58740;50.672;18.690;2023-04-28T14:41:57;15.66;35.00
71082;SHT31;58740;50.672;18.690;2023-04-28T14:44:25;15.68;36.12
71082;SHT31;58740;50.672;18.690;2023-04-28T14:46:53;15.69;36.44
71082;SHT31;58740;50.672;18.690;2023-04-28T14:49:20;15.70;37.29
71082;SHT31;58740;50.672;18.690;2023-04-28T14:51:48;15.69;37.36
71082;SHT31;58740;50.672;18.690;2023-04-28T14:54:16;15.68;37.41
71082;SHT31;58740;50.672;18.690;2023-04-28T14:56:44;15.65;37.62
71082;SHT31;58740;50.672;18.690;2023-04-28T14:59:12;15.62;37.67
71082;SHT31;58740;50.672;18.690;2023-04-28T15:01:39;15.58;37.76
71082;SHT31;58740;50.672;18.690;2023-04-28T15:04:08;15.54;37.52
71082;SHT31;58740;50.672;18.690;2023-04-28T15:06:36;15.51;38.13
71082;SHT31;58740;50.672;18.690;2023-04-28T15:09:04;15.47;37.64
71082;SHT31;58740;50.672;18.690;2023-04-28T15:11:32;15.44;37.67
71082;SHT31;58740;50.672;18.690;2023-04-28T15:14:00;15.41;38.26
71082;SHT31;58740;50.672;18.690;2023-04-28T15:16:27;15.38;37.43
71082;SHT31;58740;50.672;18.690;2023-04-28T15:18:55;15.36;38.39
71082;SHT31;58740;50.672;18.690;2023-04-28T15:21:23;15.34;39.14
71082;SHT31;58740;50.672;18.690;2023-04-28T15:23:51;15.32;39.23
71082;SHT31;58740;50.672;18.690;2023-04-28T15:26:19;15.32;38.66
71082;SHT31;58740;50.672;18.690;2023-04-28T15:28:46;15.32;39.44
71082;SHT31;58740;50.672;18.690;2023-04-28T15:31:14;15.29;39.71
71082;SHT31;58740;50.672;18.690;2023-04-28T15:33:42;15.28;39.49
71082;SHT31;58740;50.672;18.690;2023-04-28T15:36:10;15.26;39.09
71082;SHT31;58740;50.672;18.690;2023-04-28T15:38:40;15.27;37.54
71082;SHT31;58740;50.672;18.690;2023-04-28T15:41:08;15.28;38.09
71082;SHT31;58740;50.672;18.690;2023-04-28T15:43:38;15.24;38.48
71082;SHT31;58740;50.672;18.690;2023-04-28T15:46:06;15.22;38.45
71082;SHT31;58740;50.672;18.690;2023-04-28T15:48:37;15.22;39.07
71082;SHT31;58740;50.672;18.690;2023-04-28T15:51:06;15.18;39.51
71082;SHT31;58740;50.672;18.690;2023-04-28T15:53:33;15.18;38.59
71082;SHT31;58740;50.672;18.690;2023-04-28T15:56:01;15.20;38.01
71082;SHT31;58740;50.672;18.690;2023-04-28T15:58:31;15.21;38.49
71082;SHT31;58740;50.672;18.690;2023-04-28T16:00:58;15.21;38.63
71082;SHT31;58740;50.672;18.690;2023-04-28T16:03:26;15.21;38.65